• Join FlightAware (Why Join?)
  • Login
  • US Flag 
04:32PM EST


 

Airport Tracker/Info


-or-


 

Live Flight TrackerFlight Track Log ✈ SWA1718 ✈ 16-Apr-2013 ✈ KAMA - KDEN

Flight Track Log - Related Links

Times and Time Zones

All times are in EDT time to prevent confusion due to time zone crossing. See the SWA1718 flight status page for this flight to view local times or setup timezone preferences in your user account.

Time Position Orientation Groundspeed Altitude Reporting Facility
EDT Latitude Longitude Course Direction KTS MPH feet Rate Location/Type
05:05PM 35.4525 -101.7883 340° North 313 360 10,600  Level Albuquerque Center
05:06PM 35.5475 -101.8325 339° North 354 407 12,300 1,920 Climbing Albuquerque Center
05:07PM 35.6517 -101.8814 339° North 389 448 14,600 2,220 Climbing Albuquerque Center
05:08PM 35.7608 -101.9333 339° North 413 475 16,900 2,100 Climbing Albuquerque Center
05:09PM 35.8140 -101.9689 342° North  Level FlightAware Approximate
05:09PM 35.8714 -101.9850 339° North 422 486 19,000  Level Albuquerque Center
05:10PM 36.0081 -102.0492 339° North 434 499 21,100 1,860 Climbing Albuquerque Center
05:11PM 36.1261 -102.1044 339° North 447 514 22,900 1,620 Climbing Albuquerque Center
05:13PM 36.2456 -102.1614 339° North 458 527 24,500 1,320 Climbing Albuquerque Center
05:14PM 36.3675 -102.2189 339° North 466 536 25,700 1,380 Climbing Albuquerque Center
05:15PM 36.4922 -102.2786 339° North 477 549 27,400 1,800 Climbing Albuquerque Center
05:16PM 36.6139 -102.3367 339° North 472 543 29,400 1,620 Climbing Albuquerque Center
05:17PM 36.7319 -102.3944 339° North 462 532 30,800 1,260 Climbing Albuquerque Center
05:18PM 36.8753 -102.4642 339° North 460 529 32,000 540 Climbing Albuquerque Center
05:19PM 36.9992 -102.5253 339° North 468 539 32,000  Level Albuquerque Center
05:20PM 37.1136 -102.5811 339° North 464 534 32,000  Level Albuquerque Center
05:21PM 37.2283 -102.6367 339° North 461 531 32,000  Level Albuquerque Center
05:22PM 37.3608 -102.7017 339° North 460 529 32,000  Level Albuquerque Center
05:23PM 37.4564 -102.7486 339° North 465 535 32,000  Level Denver Center
05:24PM 37.5731 -102.7975 342° North 464 534 32,000  Level Denver Center
05:25PM 37.7150 -102.8444 345° North 471 542 32,000  Level Denver Center
05:26PM 37.8175 -102.9217 329° Northwest 449 517 32,000 -480 Level Denver Center
05:27PM 37.9189 -103.0039 327° Northwest 453 521 31,100 -1,020 Descending Denver Center
05:28PM 38.0328 -103.0975 327° Northwest 440 506 30,000 -540 Descending Denver Center
05:29PM 38.1261 -103.1747 327° Northwest 422 486 30,000  Level Denver Center
05:30PM 38.2292 -103.2589 327° Northwest 399 459 30,000  Level Denver Center
05:31PM 38.3136 -103.3294 327° Northwest 405 466 30,000  Level Denver Center
05:32PM 38.4256 -103.4214 327° Northwest 424 488 30,000  Level Denver Center
05:33PM 38.5278 -103.5069 327° Northwest 434 499 30,000  Level Denver Center
05:34PM 38.6431 -103.6031 327° Northwest 442 509 30,000  Level Denver Center
05:35PM 38.7414 -103.6850 327° Northwest 441 507 30,000  Level Denver Center
05:36PM 38.8367 -103.7656 327° Northwest 431 496 30,000 -540 Level Denver Center
05:37PM 38.9400 -103.8514 327° Northwest 434 499 28,900 -1,920 Descending Denver Center
05:38PM 39.0569 -103.9522 326° Northwest 430 495 26,100 -2,460 Descending Denver Center
05:39PM 39.1517 -104.0322 327° Northwest 409 471 23,900 -1,800 Descending Denver Center
05:40PM 39.2383 -104.1064 326° Northwest 385 443 22,100 -1,680 Descending Denver Center
05:41PM 39.3433 -104.1925 328° Northwest 359 413 20,100 -2,040 Descending Denver Center
05:42PM 39.4294 -104.2642 327° Northwest 362 417 18,000 -1,500 Descending Denver Center
05:43PM 39.5189 -104.3369 328° Northwest 347 399 17,100 -660 Descending Denver Center
05:44PM 39.5983 -104.4028 327° Northwest 339 390 16,700 -1,080 Descending Denver Center
05:45PM 39.6767 -104.4675 328° Northwest 331 381 14,900 -1,860 Descending Denver Center
05:46PM 39.7500 -104.5483 320° Northwest 318 366 13,000 -1,380 Descending Denver Center
05:47PM 39.7658 -104.6419 282° West 256 295 12,100 -840 Descending Denver Center
05:48PM 39.7708 -104.7311 274° West 243 280 11,300 -1,080 Descending Denver Center
05:49PM 39.7750 -104.8272 273° West 244 281 9,900 -1,140 Descending Denver Center
05:50PM 39.7694 -104.9119 265° West 231 266 9,000 -420 Descending Denver Center
05:52PM 39.7617 -104.9883 262° West 215 247 9,100  Climbing Denver Center
05:53PM 39.8156 -105.0094 343° North 222 255 9,000 -60 Descending Denver Center
05:54PM 39.8586 -104.9550 44° Northeast 212 244 9,000 -360 Level Denver Center
05:55PM 39.9008 -104.9014 44° Northeast 210 242 8,300 -780 Descending Denver Center
05:56PM 39.9422 -104.8469 45° Northeast 209 241 7,500 -660 Descending Denver Center
05:57PM 39.9872 -104.7919 43° Northeast 205 236 7,000 -240 Descending Denver Center
05:58PM 40.0092 -104.7375 62° Northeast 186 214 7,100 -180 Climbing Denver Center
05:59PM 39.9683 -104.7108 153° Southeast 166 191 6,700 -540 Descending Denver Center
06:00PM 39.9286 -104.6975 166° South 138 159 6,000 -660 Descending Denver Center
06:01PM 39.8847 -104.6969 179° South 147 169 5,300 -600 Descending Denver Center
06:03PM 39.8617 -104.6732 218° Southwest  Level Estimated
06:10PM 39.8617 -104.6732 218° Southwest  Level Estimated
06:11PM 39.8617 -104.6732 218° Southwest  Level Estimated